x

Cape Elizabeth- 45nm Nw Of Aberdeen, Wa (46041) Wave Buoy

11:50pm - Wed 16th Aug 2017 All times are PDT. -7 hours from GMT.

  • Sig Wave height 5.2ft
  • Swell Direction
  • Peak Period 10s
  • Average Period 6s
  • Wind
    9mph, 11mph gusts
  • Sea Temp 58°f
  • 空気 Temp 58°f
  • Sea Pressure 1021.1mb
  • Cape Elizabeth- 45nm Nw Of Aberdeen, Wa
  • Cape Elizabeth- 45nm Nw Of Aberdeen, Wa

More Historic Weather Station data

Upgrade to MSW Pro to gain access to the past 30 days of data for over 8000 Wavebouys and Weather Stations around the globe.

Join

Comparision Forecast

View Surf forecast
   
Wed 08/16 11:50pm 5ft 10s 6s 9 11 mph 1021.1mb 58f 58f
10:50pm 5ft 8s 7s 9 11 mph 1020.9mb 58f 58f
9:50pm 5ft 10s 7s 11 13 mph 1020.6mb 58f 59f
8:50pm 5ft 10s 7s 9 11 mph 1020.2mb 58f 60f
7:50pm 5ft 10s 7s 7 9 mph 1020.2mb 59f 60f
6:50pm 5ft 10s 7s 4 7 mph 1020.4mb 58f 59f
5:50pm 5ft 10s 7s 7 9 mph 1020.3mb 58f 59f
3:50pm 7ft 10s 8s 7 7 mph 1020.8mb 59f 60f
2:50pm 5.5ft 10s 8s 7 7 mph 1021.1mb 60f 60f
1:50pm 6ft 10s 8s 4 4 mph 1021.2mb 60f 60f
12:50pm 6ft 10s 8s 2 4 mph 1020.8mb 60f 60f
11:50am 5.5ft 10s 7s 2 4 mph 1020.7mb 58f 59f
10:50am 5.5ft 10s 7s 2 4 mph 1020.5mb 57f 59f
9:50am 5ft 10s 8s 2 2 mph 1020.2mb 56f 58f
8:50am 6ft 10s 8s 4 7 mph 1020.3mb 56f 57f
7:50am 5.5ft 10s 8s 4 7 mph 1019.8mb 56f 58f
6:50am 6ft 10s 8s 7 9 mph 1019.5mb 56f 58f
5:50am 5.5ft 10s 8s 9 11 mph 1019.1mb 56f 57f
4:50am 5ft 9s 8s 11 11 mph 1019mb 56f 58f
3:50am 5.5ft 10s 8s 7 9 mph 1019mb 56f 57f
2:50am 4.5ft 10s 7s 4 4 mph 1018.7mb 56f 56f
1:50am 5ft 10s 8s 7 7 mph 1018.5mb 56f 56f
12:50am 4.5ft 10s 7s 7 7 mph 1018.3mb 56f 56f
Tue 08/15 11:50pm 4.5ft 10s 6s 9 11 mph 1018.2mb 56f 57f
10:50pm 3.5ft 10s 6s 9 11 mph 1018.1mb 56f 57f
9:50pm 4ft 10s 5s 11 11 mph 1017.6mb 56f 58f
8:50pm 3.5ft 9s 5s 11 13 mph 1017.1mb 56f 58f
7:50pm 3.5ft 10s 5s 13 16 mph 1016.7mb 56f 58f
6:50pm 3.5ft 10s 5s 13 16 mph 1016.6mb 56f 59f
5:50pm 3.5ft 9s 5s 13 16 mph 1016.5mb 56f 59f
4:50pm 3.5ft 9s 6s 13 16 mph 1016.6mb 57f 59f
3:50pm 3.5ft 8s 6s 11 13 mph 1016.7mb 57f 59f
2:50pm 3.5ft 9s 6s 11 13 mph 1016.8mb 57f 58f
1:50pm 3.5ft 9s 6s 11 11 mph 1016.6mb 57f 58f
12:50pm 3.5ft 8s 7s 11 11 mph 1016.7mb 57f 58f
11:50am 3.5ft 9s 6s 9 9 mph 1016.5mb 56f 58f
10:50am 3.5ft 9s 6s 7 9 mph 1016.1mb 56f 57f
9:50am 4.5ft 9s 7s 7 7 mph 1015.9mb 56f 56f
8:50am 4ft 9s 6s 7 9 mph 1015.6mb 55f 55f
7:50am 4.5ft 9s 7s 9 9 mph 1014.8mb 55f 55f
6:50am 4.5ft 9s 7s 9 11 mph 1014.6mb 56f 55f
5:50am 4.5ft 9s 7s 11 11 mph 1014.2mb 56f 55f
4:50am 5ft 10s 7s 9 11 mph 1014.1mb 56f 55f
3:50am 5ft 10s 7s 9 11 mph 1014mb 56f 55f
2:50am 5ft 9s 7s 11 11 mph 1014.2mb 56f 55f
1:50am 5ft 10s 7s 11 13 mph 1014.1mb 56f 55f
12:50am 5ft 9s 7s 11 13 mph 1014.2mb 56f 55f
Mon 08/14 11:50pm 5ft 10s 7s 11 13 mph 1014.1mb 56f 56f
10:50pm 5ft 9s 7s 13 16 mph 1014.2mb 57f 56f
9:50pm 5ft 10s 7s 11 11 mph 1014.2mb 57f 57f
8:50pm 5ft 10s 7s 9 11 mph 1014.2mb 57f 57f
7:50pm 5ft 10s 7s 11 13 mph 1014.3mb 58f 58f
6:50pm 6ft 10s 8s 11 13 mph 1014.4mb 58f 59f
5:50pm 6.5ft 10s 8s 9 9 mph 1015mb 59f 59f
4:50pm 6ft 10s 8s 9 9 mph 1015.4mb 60f 59f
3:50pm 6ft 11s 8s 7 9 mph 1015.6mb 61f 59f
2:50pm 6ft 10s 7s 4 7 mph 1016.3mb 62f 59f
1:50pm 6ft 9s 7s 2 4 mph 1016.5mb 62f 58f
12:50pm 6.5ft 10s 8s 2 4 mph 1016.8mb 60f 57f
11:50am 6.5ft 11s 8s 2 4 mph 1017.1mb 59f 57f
10:50am 7ft 10s 8s 2 4 mph 1017.2mb 58f 57f
9:50am 6.5ft 9s 8s 4 7 mph 1017mb 57f 57f
8:50am 7.5ft 10s 8s 2 4 mph 1017.1mb 56f 56f
7:50am 7.5ft 10s 8s 4 7 mph 1017mb 56f 56f
6:50am 7ft 11s 8s 4 7 mph 1017mb 56f 56f
5:50am 6.5ft 10s 8s 7 9 mph 1016.8mb 56f 56f
4:50am 6ft 9s 8s 7 9 mph 1017.1mb 57f 56f
3:50am 7ft 10s 8s 7 9 mph 1017.5mb 57f 57f
2:50am 6.5ft 10s 8s 2 4 mph 1017.9mb 57f 56f
1:50am 6.5ft 10s 8s 2 2 mph 1018mb 57f 56f
12:50am 6.5ft 9s  -  4 4 mph 1018.1mb 57f 57f
Sun 08/13 11:50pm 7ft 9s 8s 7 7 mph 1018.4mb 57f 58f
10:50pm 6.5ft 9s 7s 9 11 mph 1018.6mb 57f 58f
9:50pm 6ft 10s 7s 4 7 mph 1018.5mb 58f 57f
8:50pm 7ft 10s 7s 4 7 mph 1018.2mb 58f 58f
7:50pm 6.5ft 9s 7s 7 7 mph 1018.2mb 58f 58f
6:50pm 6.5ft 9s 7s 7 7 mph 1018.1mb 58f 59f
5:50pm 7ft 9s 7s 11 13 mph 1018.3mb 58f 59f
4:50pm 6ft 9s 6s 9 11 mph 1018.4mb 58f 59f
3:50pm 5.5ft 8s 6s 7 9 mph 1018.4mb 59f 59f
2:50pm 5.5ft 8s 6s 4 4 mph 1018.5mb 59f 59f
1:50pm 5ft 8s 6s 7 7 mph 1018.3mb 58f 59f
12:50pm 4.5ft 7s 6s 7 9 mph 1017.9mb 58f 58f
11:50am 4.5ft 7s 6s 9 9 mph 1017.7mb 57f 59f
10:50am 4.5ft 8s 6s 11 13 mph 1017mb 57f 59f
9:50am 4.5ft 8s 6s 9 11 mph 1016.6mb 58f 59f
8:50am 4.5ft 7s 5s 9 11 mph 1015.8mb 57f 59f